Time;durP1;ratioP1;P1;durP2;ratioP2;P2;SDS_P1;SDS_P2;PMS_P1;PMS_P2;Temp;Humidity;BMP_temperature;BMP_pressure;BME280_temperature;BME280_humidity;BME280_pressure;Samples;Min_cycle;Max_cycle;Signal;HPM_P1;HPM_P2
2021/05/24 00:00:31;;;;;;;6.18;2.00;;;;;;;2.39;91.46;93024.91;2096067;28;20159;-87
2021/05/24 00:01:31;;;;;;;3.95;1.80;;;;;;;2.31;91.59;93025.19;2095288;28;20027;-86
2021/05/24 00:02:32;;;;;;;3.97;1.80;;;;;;;2.30;91.83;93021.81;2090478;28;20036;-88
2021/05/24 00:03:33;;;;;;;2.83;1.77;;;;;;;2.29;92.24;93022.94;2092391;28;20104;-86
2021/05/24 00:04:33;;;;;;;3.35;2.40;;;;;;;2.31;92.45;93019.94;2090094;28;20056;-87
2021/05/24 00:05:35;;;;;;;6.20;2.00;;;;;;;2.34;92.60;93017.31;2090264;28;20025;-87
2021/05/24 00:06:36;;;;;;;3.17;1.90;;;;;;;2.40;92.61;93015.84;2087313;28;20021;-89
2021/05/24 00:07:37;;;;;;;2.15;1.70;;;;;;;2.41;92.88;93006.06;2082915;28;20025;-87
2021/05/24 00:08:38;;;;;;;3.97;1.70;;;;;;;2.39;92.64;93009.06;2092369;28;20020;-88
2021/05/24 00:09:38;;;;;;;4.07;1.98;;;;;;;2.27;93.22;92999.56;2100587;28;20037;-87
2021/05/24 00:10:42;;;;;;;2.30;1.90;;;;;;;2.24;92.52;93000.31;2090571;28;20036;-87
2021/05/24 00:11:42;;;;;;;4.75;1.90;;;;;;;2.30;92.08;93003.34;2096860;28;20020;-87
2021/05/24 00:12:47;;;;;;;4.35;2.00;;;;;;;2.31;91.83;93001.47;2087686;28;20025;-88
2021/05/24 00:13:55;;;;;;;2.83;1.88;;;;;;;2.35;91.62;93000.38;2090701;28;20032;-88
2021/05/24 00:14:57;;;;;;;4.10;1.70;;;;;;;2.40;91.18;92997.38;2097860;28;20020;-87
2021/05/24 00:15:58;;;;;;;3.47;2.03;;;;;;;2.33;91.96;92993.94;2096267;28;20378;-88
2021/05/24 00:17:00;;;;;;;4.22;1.42;;;;;;;2.43;91.40;92988.75;2087915;28;20071;-87
2021/05/24 00:18:01;;;;;;;3.75;1.70;;;;;;;2.38;91.72;92983.81;2091579;28;20028;-88
2021/05/24 00:19:02;;;;;;;3.83;1.70;;;;;;;2.40;91.53;92981.56;2085808;28;20037;-88
2021/05/24 00:20:04;;;;;;;7.32;1.80;;;;;;;2.31;91.45;92988.28;2094471;28;20028;-87
2021/05/24 00:21:05;;;;;;;4.40;1.73;;;;;;;2.32;91.43;92987.91;2101402;28;20538;-87
2021/05/24 00:22:05;;;;;;;4.00;1.70;;;;;;;2.17;92.38;92987.06;2095993;28;20023;-87
2021/05/24 00:23:07;;;;;;;1.65;1.55;;;;;;;2.19;91.99;92978.78;2079871;28;20092;-87
2021/05/24 00:24:08;;;;;;;4.93;1.65;;;;;;;2.24;92.07;92978.47;2078781;28;20605;-87
2021/05/24 00:25:09;;;;;;;2.78;1.60;;;;;;;2.20;92.08;92975.03;2090184;28;20021;-87
2021/05/24 00:26:11;;;;;;;3.92;2.20;;;;;;;2.26;91.94;92976.19;2094988;28;20927;-88
2021/05/24 00:27:13;;;;;;;3.33;1.90;;;;;;;2.27;92.10;92977.72;2089894;28;20028;-85
2021/05/24 00:28:14;;;;;;;3.63;1.70;;;;;;;2.12;92.55;92982.13;2079914;28;20033;-86
2021/05/24 00:29:19;;;;;;;3.83;1.70;;;;;;;2.15;92.34;92978.00;2095244;28;20823;-87
2021/05/24 00:30:20;;;;;;;2.85;1.75;;;;;;;2.12;92.64;92974.22;2095329;28;20059;-87
2021/05/24 00:31:20;;;;;;;3.67;1.50;;;;;;;2.09;92.42;92974.19;2085684;28;20079;-87
2021/05/24 00:32:21;;;;;;;4.15;1.65;;;;;;;2.13;92.47;92977.59;2093649;28;20029;-85
2021/05/24 00:33:22;;;;;;;4.03;1.70;;;;;;;2.12;93.55;92966.31;2098763;28;20051;-86
2021/05/24 00:34:23;;;;;;;5.03;2.20;;;;;;;2.09;93.34;92963.63;2098155;28;20029;-87
2021/05/24 00:35:23;;;;;;;3.50;1.90;;;;;;;2.13;93.48;92961.78;2098001;28;20025;-87
2021/05/24 00:36:24;;;;;;;2.25;1.50;;;;;;;2.13;94.01;92962.53;2092765;28;20104;-87
2021/05/24 00:37:25;;;;;;;2.25;1.88;;;;;;;2.22;93.75;92960.34;2095846;28;20028;-87
2021/05/24 00:38:26;;;;;;;2.85;1.80;;;;;;;2.15;93.16;92959.53;2088507;28;20466;-87
2021/05/24 00:39:26;;;;;;;2.60;1.80;;;;;;;2.25;93.38;92958.88;2078011;28;20442;-88
2021/05/24 00:40:28;;;;;;;3.85;1.65;;;;;;;2.34;93.58;92955.91;2097963;28;20035;-87
2021/05/24 00:41:28;;;;;;;5.72;2.20;;;;;;;2.33;93.65;92963.06;2094109;28;20024;-87
2021/05/24 00:42:29;;;;;;;2.92;1.67;;;;;;;2.23;93.84;92953.94;2093269;28;20482;-88
2021/05/24 00:43:30;;;;;;;4.03;1.42;;;;;;;2.17;93.94;92963.31;2092385;28;20028;-87
2021/05/24 00:44:30;;;;;;;6.15;1.60;;;;;;;2.27;93.69;92961.88;2082676;28;20021;-87
2021/05/24 00:45:31;;;;;;;3.25;1.63;;;;;;;2.23;92.90;92950.56;2081644;28;20033;-87
2021/05/24 00:46:33;;;;;;;3.83;1.73;;;;;;;2.27;92.82;92952.09;2090752;28;20025;-88
2021/05/24 00:47:34;;;;;;;1.45;1.33;;;;;;;2.26;93.16;92950.56;2092402;28;20402;-87
2021/05/24 00:48:35;;;;;;;4.15;2.08;;;;;;;2.30;93.00;92947.97;2089198;28;20055;-87
2021/05/24 00:49:35;;;;;;;4.22;1.55;;;;;;;2.32;92.42;92953.63;2087770;28;20036;-87
2021/05/24 00:50:38;;;;;;;4.18;1.52;;;;;;;2.31;92.29;92946.09;2090601;28;20083;-87
2021/05/24 00:51:39;;;;;;;3.08;1.67;;;;;;;2.27;92.95;92953.97;2090361;28;20048;-86
2021/05/24 00:52:40;;;;;;;3.65;1.83;;;;;;;2.29;93.34;92946.47;2086273;28;20099;-87
2021/05/24 00:53:41;;;;;;;2.30;1.50;;;;;;;2.25;93.44;92954.34;2097694;28;20032;-89
2021/05/24 00:54:42;;;;;;;3.10;1.88;;;;;;;2.30;93.90;92945.34;2099368;28;20123;-88
2021/05/24 00:55:43;;;;;;;1.85;1.38;;;;;;;2.31;94.42;92946.84;2089975;28;20040;-87
2021/05/24 00:56:43;;;;;;;4.95;1.58;;;;;;;2.19;94.63;92949.78;2093431;28;20024;-87
2021/05/24 00:57:44;;;;;;;3.58;1.52;;;;;;;2.21;93.95;92947.53;2091603;28;20520;-87
2021/05/24 00:58:46;;;;;;;2.13;1.50;;;;;;;2.30;93.55;92947.22;2107768;28;20499;-88
2021/05/24 00:59:46;;;;;;;2.30;1.40;;;;;;;2.32;93.54;92939.69;2097224;28;20587;-86
2021/05/24 01:00:48;;;;;;;2.85;1.50;;;;;;;2.28;92.82;92947.56;2089032;28;20021;-87
2021/05/24 01:01:49;;;;;;;2.53;1.50;;;;;;;2.35;93.19;92946.88;2098512;28;20538;-87
2021/05/24 01:02:51;;;;;;;2.85;1.83;;;;;;;2.29;94.06;92957.00;2090927;28;20036;-88
2021/05/24 01:03:52;;;;;;;4.43;1.70;;;;;;;2.19;95.04;92957.69;2085775;28;20627;-87
2021/05/24 01:04:54;;;;;;;3.90;1.45;;;;;;;2.16;95.18;92958.44;2089169;28;20044;-87
2021/05/24 01:05:55;;;;;;;2.15;1.65;;;;;;;2.16;95.10;92950.53;2093856;28;20021;-87
2021/05/24 01:06:56;;;;;;;6.22;1.80;;;;;;;2.23;94.76;92945.28;2074013;28;20022;-88
2021/05/24 01:07:57;;;;;;;4.03;1.70;;;;;;;2.24;94.38;92942.28;2083964;28;20036;-88
2021/05/24 01:08:58;;;;;;;5.60;1.80;;;;;;;2.30;93.95;92936.66;2083440;28;20521;-86
2021/05/24 01:09:59;;;;;;;4.47;1.55;;;;;;;2.36;94.00;92949.13;2084680;28;20080;-87
2021/05/24 01:10:59;;;;;;;2.42;1.58;;;;;;;2.36;94.23;92940.47;2086296;28;20025;-88
2021/05/24 01:12:00;;;;;;;4.03;1.33;;;;;;;2.33;92.99;92934.06;2097677;28;20027;-87
2021/05/24 01:13:04;;;;;;;2.08;1.50;;;;;;;2.24;93.86;92931.00;2090711;28;20082;-87
2021/05/24 01:14:04;;;;;;;6.03;1.35;;;;;;;2.23;94.14;92924.94;2076042;28;20036;-88
2021/05/24 01:15:05;;;;;;;2.53;1.40;;;;;;;2.24;94.25;92923.84;2088087;28;20020;-87
2021/05/24 01:16:06;;;;;;;1.95;1.42;;;;;;;2.27;94.14;92932.88;2087525;28;20017;-87
2021/05/24 01:17:07;;;;;;;1.80;1.40;;;;;;;2.22;93.97;92927.94;2088041;28;20028;-87
2021/05/24 01:18:09;;;;;;;1.92;1.35;;;;;;;2.27;93.81;92927.59;2096168;28;20070;-87
2021/05/24 01:19:10;;;;;;;4.65;1.50;;;;;;;2.32;93.70;92926.50;2095899;28;20507;-87
2021/05/24 01:20:12;;;;;;;3.13;1.45;;;;;;;2.32;93.88;92929.13;2082391;28;20021;-87
2021/05/24 01:21:16;;;;;;;1.45;1.30;;;;;;;2.25;94.84;92927.97;2091440;28;20075;-86
2021/05/24 01:22:21;;;;;;;3.58;1.40;;;;;;;2.38;93.91;92917.13;2091794;28;20421;-88
2021/05/24 01:23:27;;;;;;;3.53;1.67;;;;;;;2.42;93.77;92923.94;2097548;28;20024;-87
2021/05/24 01:24:27;;;;;;;2.63;1.48;;;;;;;2.37;94.54;92921.66;2103114;28;20837;-87
2021/05/24 01:25:29;;;;;;;5.05;1.50;;;;;;;2.39;95.15;92914.13;2090151;28;20020;-87
2021/05/24 01:26:30;;;;;;;2.33;1.40;;;;;;;2.24;95.19;92909.91;2090548;28;20090;-88
2021/05/24 01:27:30;;;;;;;2.80;1.50;;;;;;;2.22;96.09;92915.53;2105296;28;20777;-88
2021/05/24 01:28:31;;;;;;;3.88;1.60;;;;;;;2.30;95.81;92910.31;2094723;28;20025;-88
2021/05/24 01:29:32;;;;;;;3.25;1.40;;;;;;;2.28;95.31;92902.75;2086632;28;20033;-87
2021/05/24 01:30:34;;;;;;;2.38;1.40;;;;;;;2.22;95.74;92910.25;2098911;28;20052;-88
2021/05/24 01:31:35;;;;;;;4.55;1.60;;;;;;;2.36;94.47;92912.22;2096619;28;20028;-87
2021/05/24 01:32:36;;;;;;;4.80;1.65;;;;;;;2.42;94.08;92904.72;2082499;28;20703;-87
2021/05/24 01:33:36;;;;;;;2.45;1.40;;;;;;;2.40;94.53;92905.06;2083955;28;20116;-88
2021/05/24 01:34:38;;;;;;;5.82;1.60;;;;;;;2.31;95.09;92909.91;2082416;28;20097;-87
2021/05/24 01:35:40;;;;;;;4.68;1.40;;;;;;;2.33;94.73;92901.63;2081127;28;20139;-87
2021/05/24 01:36:41;;;;;;;3.05;1.42;;;;;;;2.31;94.74;92895.97;2083010;28;20572;-87
2021/05/24 01:37:42;;;;;;;5.65;1.55;;;;;;;2.32;95.18;92889.56;2082596;28;20079;-87
2021/05/24 01:38:43;;;;;;;3.95;1.75;;;;;;;2.20;95.34;92895.94;2083881;28;20016;-88
2021/05/24 01:39:44;;;;;;;3.72;1.55;;;;;;;2.22;95.86;92883.13;2081455;28;20632;-87
2021/05/24 01:40:47;;;;;;;3.45;1.70;;;;;;;2.29;95.55;92891.09;2091287;28;20060;-87
2021/05/24 01:41:47;;;;;;;2.50;1.40;;;;;;;2.24;95.08;92888.81;2098176;28;20100;-86
2021/05/24 01:42:53;;;;;;;3.53;1.50;;;;;;;2.27;95.36;92888.81;2101888;28;20047;-87
2021/05/24 01:43:54;;;;;;;2.70;1.50;;;;;;;2.34;95.25;92885.47;2095157;28;20559;-87
2021/05/24 01:44:55;;;;;;;4.13;2.08;;;;;;;2.27;95.24;92886.16;2094308;28;20029;-87
2021/05/24 01:45:56;;;;;;;1.98;1.52;;;;;;;2.24;95.76;92888.81;2089398;28;20449;-87
2021/05/24 01:46:57;;;;;;;5.10;1.70;;;;;;;2.18;95.87;92888.38;2091700;28;20016;-87
2021/05/24 01:47:58;;;;;;;3.67;1.70;;;;;;;2.25;95.07;92885.03;2093529;28;20074;-88
2021/05/24 01:48:59;;;;;;;3.75;1.27;;;;;;;2.25;94.86;92888.44;2093058;28;20087;-88
2021/05/24 01:50:00;;;;;;;3.08;1.13;;;;;;;2.15;95.75;92894.41;2106158;28;20788;-87
2021/05/24 01:51:00;;;;;;;2.13;1.50;;;;;;;2.21;95.33;92887.66;2103501;28;20024;-87
2021/05/24 01:52:04;;;;;;;4.75;1.75;;;;;;;2.24;94.69;92889.56;2091007;28;20021;-88
2021/05/24 01:53:05;;;;;;;2.28;1.58;;;;;;;2.19;94.39;92887.25;2089588;28;20020;-88
2021/05/24 01:54:06;;;;;;;5.22;1.65;;;;;;;2.13;95.18;92878.19;2084599;28;20021;-88
2021/05/24 01:55:08;;;;;;;4.85;1.63;;;;;;;2.11;95.47;92883.06;2091198;28;20083;-87
2021/05/24 01:56:08;;;;;;;2.78;1.35;;;;;;;2.10;96.22;92891.34;2096168;28;20028;-87
2021/05/24 01:57:10;;;;;;;1.58;1.40;;;;;;;2.13;96.18;92893.25;2092261;28;20032;-88
2021/05/24 01:58:11;;;;;;;2.97;1.48;;;;;;;2.12;95.51;92892.50;2095922;28;20081;-87
2021/05/24 01:59:12;;;;;;;3.53;1.58;;;;;;;2.11;96.04;92887.56;2093789;28;20021;-87
2021/05/24 02:00:20;;;;;;;5.43;1.30;;;;;;;2.08;96.14;92889.06;2083847;28;20027;-86
2021/05/24 02:01:21;;;;;;;3.67;1.65;;;;;;;2.14;96.50;92889.47;2087163;28;20025;-87
2021/05/24 02:02:22;;;;;;;1.80;1.50;;;;;;;2.15;97.50;92889.13;2084359;28;20116;-87
2021/05/24 02:05:22;;;;;;;;;;;;;;;2.07;97.09;92881.53;2143837;27;20474;-86
2021/05/24 02:06:22;;;;;;;1.90;1.23;;;;;;;2.06;97.51;92880.75;2121475;28;19964;-88
2021/05/24 02:07:29;;;;;;;2.63;1.70;;;;;;;2.12;97.13;92876.66;2104502;28;20569;-89
2021/05/24 02:08:30;;;;;;;5.95;1.60;;;;;;;2.13;97.44;92882.69;2106110;28;20065;-86
2021/05/24 02:09:31;;;;;;;2.53;1.52;;;;;;;2.16;96.36;92866.91;2111856;27;20035;-87
2021/05/24 02:10:35;;;;;;;1.95;1.40;;;;;;;2.17;96.77;92878.22;2112939;28;20035;-86
2021/05/24 02:11:36;;;;;;;4.25;1.60;;;;;;;2.22;96.92;92864.66;2103148;28;20028;-86
2021/05/24 02:12:36;;;;;;;2.78;1.70;;;;;;;2.21;95.89;92868.44;2104472;28;20020;-86
2021/05/24 02:13:37;;;;;;;3.40;1.58;;;;;;;2.19;96.88;92875.94;2112375;27;20038;-86
2021/05/24 02:14:38;;;;;;;3.88;1.63;;;;;;;2.28;96.73;92879.00;2112849;28;20442;-86
2021/05/24 02:15:40;;;;;;;1.50;1.40;;;;;;;2.41;96.08;92877.56;2120258;27;20027;-88
2021/05/24 02:16:44;;;;;;;2.05;1.60;;;;;;;2.32;95.08;92882.41;2112844;28;20584;-89
2021/05/24 02:17:45;;;;;;;3.08;1.38;;;;;;;2.36;95.60;92882.44;2112897;28;20032;-88
2021/05/24 02:18:45;;;;;;;3.50;1.70;;;;;;;2.30;95.77;92876.78;2104409;28;20156;-88
2021/05/24 02:19:48;;;;;;;2.40;1.40;;;;;;;2.36;95.41;92875.28;2112888;28;20092;-89
2021/05/24 02:20:49;;;;;;;3.97;1.73;;;;;;;2.27;96.70;92869.59;2116040;28;20504;-86
2021/05/24 02:21:49;;;;;;;2.70;1.48;;;;;;;2.35;96.54;92870.38;2101208;28;20024;-87
2021/05/24 02:22:51;;;;;;;3.50;1.38;;;;;;;2.29;97.04;92864.72;2107231;28;20389;-88
2021/05/24 02:23:52;;;;;;;2.58;1.85;;;;;;;2.35;96.67;92865.13;2104349;28;20047;-86
2021/05/24 02:24:53;;;;;;;1.92;1.20;;;;;;;2.23;96.99;92868.81;2104282;28;20389;-88
2021/05/24 02:25:53;;;;;;;1.92;1.48;;;;;;;2.31;96.71;92872.25;2104151;28;20469;-88
2021/05/24 02:26:54;;;;;;;1.98;1.30;;;;;;;2.31;96.67;92857.19;2098674;28;20194;-86
2021/05/24 02:27:56;;;;;;;2.65;1.30;;;;;;;2.26;96.59;92854.91;2101006;28;20025;-88
2021/05/24 02:28:57;;;;;;;4.85;1.63;;;;;;;2.26;96.75;92863.56;2104446;28;20089;-88
2021/05/24 02:29:58;;;;;;;3.55;1.70;;;;;;;2.34;96.75;92856.44;2104421;28;20062;-88
2021/05/24 02:30:58;;;;;;;3.40;1.60;;;;;;;2.37;95.80;92858.34;2118652;28;20066;-87
2021/05/24 02:31:59;;;;;;;2.72;2.53;;;;;;;2.42;96.03;92858.00;2121146;27;20461;-88
2021/05/24 02:33:00;;;;;;;3.20;1.55;;;;;;;2.35;96.46;92847.41;2113012;28;20647;-88
2021/05/24 02:34:02;;;;;;;4.65;1.45;;;;;;;2.46;96.97;92850.09;2120032;28;20081;-87
2021/05/24 02:35:04;;;;;;;2.85;1.50;;;;;;;2.37;97.45;92852.31;2109886;28;20017;-87
2021/05/24 02:36:05;;;;;;;1.83;1.45;;;;;;;2.35;98.19;92850.03;2113098;27;20804;-89
2021/05/24 02:37:06;;;;;;;2.50;1.50;;;;;;;2.34;97.05;92843.25;2115118;28;20019;-88
2021/05/24 02:38:07;;;;;;;4.13;1.60;;;;;;;2.41;96.44;92851.19;2103361;28;20016;-87
2021/05/24 02:39:09;;;;;;;5.90;1.50;;;;;;;2.41;96.75;92842.53;2106062;27;20448;-88
2021/05/24 02:40:11;;;;;;;2.03;1.20;;;;;;;2.42;97.05;92850.09;2127341;27;20015;-88
2021/05/24 02:41:12;;;;;;;1.83;1.40;;;;;;;2.44;96.22;92852.34;2112875;28;20076;-87
2021/05/24 02:42:13;;;;;;;2.83;1.40;;;;;;;2.39;96.41;92847.44;2112735;28;20443;-88
2021/05/24 02:43:13;;;;;;;4.40;1.17;;;;;;;2.40;95.70;92852.31;2102780;28;20048;-88
2021/05/24 02:44:14;;;;;;;3.67;1.27;;;;;;;2.40;95.61;92852.31;2116117;28;20024;-87
2021/05/24 02:45:17;;;;;;;4.20;1.40;;;;;;;2.34;96.35;92848.53;2095816;28;20176;-88
2021/05/24 02:46:17;;;;;;;3.42;1.55;;;;;;;2.39;96.50;92848.19;2096449;28;20074;-87
2021/05/24 02:47:18;;;;;;;5.63;1.50;;;;;;;2.38;97.38;92851.19;2096013;28;20025;-88
2021/05/24 02:48:19;;;;;;;3.22;1.25;;;;;;;2.41;97.30;92853.81;2097394;28;20075;-87
2021/05/24 02:49:20;;;;;;;3.35;1.50;;;;;;;2.36;97.57;92854.19;2115627;28;20020;-88
2021/05/24 02:50:23;;;;;;;2.75;1.40;;;;;;;2.39;97.29;92852.69;2123216;27;20028;-88
2021/05/24 02:51:24;;;;;;;3.05;1.38;;;;;;;2.34;98.04;92851.19;2110256;28;20020;-87
2021/05/24 02:52:25;;;;;;;2.22;1.40;;;;;;;2.38;97.71;92854.59;2112794;28;20074;-87
2021/05/24 02:53:25;;;;;;;1.30;1.20;;;;;;;2.41;97.57;92853.81;2104447;28;20032;-87
2021/05/24 02:54:26;;;;;;;3.70;1.42;;;;;;;2.46;97.65;92844.84;2112511;28;20106;-88
2021/05/24 02:55:27;;;;;;;1.95;1.25;;;;;;;2.46;97.74;92850.09;2112516;28;20032;-88
2021/05/24 02:56:28;;;;;;;2.92;1.30;;;;;;;2.46;97.52;92840.31;2129827;27;20121;-89
2021/05/24 02:57:30;;;;;;;1.45;1.30;;;;;;;2.47;96.95;92846.34;2108479;28;20027;-87
2021/05/24 02:58:30;;;;;;;1.30;1.20;;;;;;;2.46;96.74;92845.59;2107555;28;20031;-87
2021/05/24 02:59:31;;;;;;;1.90;1.20;;;;;;;2.48;97.42;92850.47;2097785;28;20028;-88
2021/05/24 03:00:32;;;;;;;3.30;1.17;;;;;;;2.52;97.80;92857.28;2104903;28;20027;-88
2021/05/24 03:01:33;;;;;;;5.13;1.30;;;;;;;2.47;97.02;92851.63;2109354;28;20011;-88
2021/05/24 03:02:42;;;;;;;1.95;1.27;;;;;;;2.63;96.93;92846.00;2109915;28;20107;-87
2021/05/24 03:03:43;;;;;;;5.47;1.60;;;;;;;2.56;96.93;92836.19;2103614;28;20669;-88
2021/05/24 03:04:44;;;;;;;1.42;1.13;;;;;;;2.59;97.58;92846.00;2103040;28;20044;-87
2021/05/24 03:05:44;;;;;;;4.00;1.50;;;;;;;2.50;97.49;92841.09;2096425;28;20044;-88
2021/05/24 03:06:45;;;;;;;2.80;1.35;;;;;;;2.56;97.51;92846.00;2097789;28;20031;-88
2021/05/24 03:07:48;;;;;;;3.28;1.35;;;;;;;2.54;97.64;92843.72;2106909;28;20024;-87
2021/05/24 03:08:49;;;;;;;2.88;1.70;;;;;;;2.44;98.48;92836.50;2104012;28;20107;-87
2021/05/24 03:09:50;;;;;;;2.47;1.42;;;;;;;2.57;98.88;92842.22;2104205;28;20036;-88
2021/05/24 03:10:51;;;;;;;2.40;1.50;;;;;;;2.61;98.86;92849.03;2095765;28;20048;-87
2021/05/24 03:11:51;;;;;;;2.45;1.30;;;;;;;2.61;98.25;92854.31;2092718;28;20023;-86
2021/05/24 03:12:53;;;;;;;1.98;1.30;;;;;;;2.62;98.07;92844.50;2107760;28;20031;-87
2021/05/24 03:13:54;;;;;;;4.68;1.42;;;;;;;2.60;98.29;92844.88;2103426;28;20107;-88
2021/05/24 03:14:54;;;;;;;3.58;1.63;;;;;;;2.59;97.81;92840.75;2104774;28;20484;-87
2021/05/24 03:15:56;;;;;;;3.42;1.38;;;;;;;2.52;98.02;92840.69;2087044;28;20024;-87
2021/05/24 03:16:57;;;;;;;3.95;1.42;;;;;;;2.55;97.61;92836.53;2098040;28;20032;-87
2021/05/24 03:17:58;;;;;;;2.22;1.55;;;;;;;2.56;97.68;92840.72;2106994;28;20031;-88
2021/05/24 03:18:58;;;;;;;2.72;1.50;;;;;;;2.49;97.72;92829.00;2098351;28;20020;-87
2021/05/24 03:19:59;;;;;;;2.30;1.33;;;;;;;2.57;97.59;92829.78;2098321;28;20028;-88
2021/05/24 03:21:00;;;;;;;1.60;1.30;;;;;;;2.51;97.21;92826.75;2099164;28;20028;-87
2021/05/24 03:22:01;;;;;;;3.10;1.25;;;;;;;2.57;96.96;92826.41;2098365;28;20028;-87
2021/05/24 03:23:02;;;;;;;3.03;1.27;;;;;;;2.57;97.12;92824.50;2106837;28;20107;-88
2021/05/24 03:24:04;;;;;;;5.22;1.60;;;;;;;2.56;97.61;92832.81;2106626;28;20077;-86
2021/05/24 03:25:07;;;;;;;3.60;1.73;;;;;;;2.49;97.38;92830.88;2096007;28;20032;-87
2021/05/24 03:26:07;;;;;;;2.70;1.33;;;;;;;2.58;97.04;92822.63;2098066;28;20020;-87
2021/05/24 03:27:08;;;;;;;2.90;1.50;;;;;;;2.60;97.40;92836.97;2093180;28;20905;-86
2021/05/24 03:28:09;;;;;;;1.85;1.45;;;;;;;2.61;97.85;92829.81;2094706;28;20025;-87
2021/05/24 03:29:09;;;;;;;4.70;1.38;;;;;;;2.60;97.40;92817.75;2091847;28;20025;-87
2021/05/24 03:30:11;;;;;;;1.73;1.38;;;;;;;2.52;97.71;92822.22;2106763;28;20492;-87
2021/05/24 03:31:12;;;;;;;1.45;1.30;;;;;;;2.53;97.77;92805.28;2098278;28;20490;-88
2021/05/24 03:32:13;;;;;;;1.80;1.30;;;;;;;2.61;97.84;92813.97;2095871;28;20044;-86
2021/05/24 03:33:14;;;;;;;3.80;2.15;;;;;;;2.66;97.60;92814.34;2087325;28;20024;-87
2021/05/24 03:34:14;;;;;;;2.05;1.48;;;;;;;2.57;97.18;92815.84;2098337;28;20017;-89
2021/05/24 03:35:15;;;;;;;2.25;1.30;;;;;;;2.53;96.76;92813.94;2106831;28;20032;-89
2021/05/24 03:36:16;;;;;;;2.50;1.60;;;;;;;2.57;97.10;92811.31;2098313;28;20052;-89
2021/05/24 03:37:17;;;;;;;2.97;1.58;;;;;;;2.47;97.59;92825.22;2095030;28;20028;-88
2021/05/24 03:38:18;;;;;;;3.25;1.27;;;;;;;2.52;97.63;92815.06;2094722;28;20473;-89
2021/05/24 03:39:20;;;;;;;4.82;1.40;;;;;;;2.50;97.77;92822.63;2098157;28;20091;-88
2021/05/24 03:40:21;;;;;;;4.45;1.60;;;;;;;2.55;97.26;92823.34;2093133;28;20547;-88
2021/05/24 03:41:21;;;;;;;3.13;1.40;;;;;;;2.57;97.44;92818.47;2089979;28;20108;-88
2021/05/24 03:42:22;;;;;;;1.23;1.13;;;;;;;2.49;97.64;92818.44;2089924;28;20029;-88
2021/05/24 03:43:23;;;;;;;3.60;1.35;;;;;;;2.50;98.07;92819.97;2089855;28;20115;-87
2021/05/24 03:44:24;;;;;;;4.30;1.50;;;;;;;2.54;97.86;92825.25;2084765;28;20020;-88
2021/05/24 03:45:30;;;;;;;2.17;1.55;;;;;;;2.52;97.35;92825.63;2090091;28;20021;-87
2021/05/24 03:46:31;;;;;;;3.83;1.60;;;;;;;2.53;97.08;92815.81;2100815;28;20032;-87
2021/05/24 03:47:32;;;;;;;3.05;1.10;;;;;;;2.53;96.58;92816.56;2083534;28;20025;-88
2021/05/24 03:48:32;;;;;;;1.92;1.27;;;;;;;2.54;98.27;92825.25;2086545;28;20021;-86
2021/05/24 03:49:33;;;;;;;1.55;1.30;;;;;;;2.64;98.85;92823.78;2097251;28;20036;-87
2021/05/24 03:50:34;;;;;;;1.95;1.20;;;;;;;2.65;97.97;92822.66;2099613;28;20024;-88
2021/05/24 03:51:34;;;;;;;4.90;1.42;;;;;;;2.59;97.94;92827.53;2101818;28;20023;-88
2021/05/24 03:52:36;;;;;;;4.00;1.40;;;;;;;2.61;97.75;92820.00;2098198;28;20024;-88
2021/05/24 03:53:36;;;;;;;2.42;1.58;;;;;;;2.70;98.12;92817.75;2103645;28;20024;-88
2021/05/24 03:54:37;;;;;;;2.63;1.30;;;;;;;2.62;98.32;92824.16;2098081;28;20389;-88
2021/05/24 03:55:38;;;;;;;1.40;1.30;;;;;;;2.62;98.07;92820.75;2098072;28;20055;-86
2021/05/24 03:56:39;;;;;;;3.60;1.30;;;;;;;2.68;98.46;92825.31;2089749;28;20032;-88
2021/05/24 03:57:40;;;;;;;3.95;1.27;;;;;;;2.61;97.20;92821.88;2097142;28;20582;-88
2021/05/24 03:58:40;;;;;;;2.97;1.27;;;;;;;2.56;97.95;92836.19;2096730;28;20036;-89
2021/05/24 03:59:41;;;;;;;3.33;1.30;;;;;;;2.61;97.63;92824.53;2097612;28;20489;-88
2021/05/24 04:00:42;;;;;;;4.03;1.20;;;;;;;2.61;97.82;92825.28;2094390;28;20032;-88
2021/05/24 04:01:43;;;;;;;2.30;1.35;;;;;;;2.62;97.31;92829.41;2106213;28;20576;-87
2021/05/24 04:02:44;;;;;;;4.10;1.20;;;;;;;2.58;97.88;92833.94;2106559;28;20115;-87
2021/05/24 04:03:45;;;;;;;1.50;1.23;;;;;;;2.60;98.45;92834.31;2100730;28;20163;-88
2021/05/24 04:04:46;;;;;;;4.20;3.28;;;;;;;2.64;98.38;92831.72;2105776;28;20113;-88
2021/05/24 04:05:49;;;;;;;3.47;1.40;;;;;;;2.61;98.88;92821.88;2097948;28;20477;-87
2021/05/24 04:06:54;;;;;;;3.15;1.30;;;;;;;2.55;99.05;92812.81;2083040;28;20128;-88
2021/05/24 04:07:57;;;;;;;3.28;1.38;;;;;;;2.59;98.64;92819.63;2107681;27;20031;-87
2021/05/24 04:08:58;;;;;;;2.60;1.38;;;;;;;2.57;98.50;92818.47;2111965;28;20030;-88
2021/05/24 04:09:59;;;;;;;1.42;1.15;;;;;;;2.62;99.18;92818.88;2094599;28;20036;-87
2021/05/24 04:11:02;;;;;;;1.30;1.20;;;;;;;2.67;99.50;92813.22;2094073;28;20020;-88
2021/05/24 04:12:02;;;;;;;2.88;1.40;;;;;;;2.72;98.67;92815.53;2098336;28;20119;-88
2021/05/24 04:13:03;;;;;;;2.60;1.50;;;;;;;2.68;99.06;92814.75;2104836;28;20023;-87
2021/05/24 04:14:04;;;;;;;3.38;1.17;;;;;;;2.77;99.27;92824.97;2105842;28;20024;-88
2021/05/24 04:15:06;;;;;;;3.35;1.30;;;;;;;2.79;99.38;92817.41;2093691;28;20019;-88
2021/05/24 04:16:06;;;;;;;2.00;1.30;;;;;;;2.76;98.34;92820.78;2085266;28;20569;-87
2021/05/24 04:17:08;;;;;;;3.20;1.30;;;;;;;2.67;99.04;92815.13;2089880;28;20028;-87
2021/05/24 04:18:14;;;;;;;3.83;1.30;;;;;;;2.74;99.49;92813.25;2090368;28;20052;-87
2021/05/24 04:19:15;;;;;;;3.88;1.80;;;;;;;2.78;99.70;92819.31;2088300;28;20078;-88
2021/05/24 04:20:16;;;;;;;3.60;1.50;;;;;;;2.81;99.82;92820.44;2085327;28;20535;-88
2021/05/24 04:21:18;;;;;;;3.00;1.23;;;;;;;2.86;99.38;92821.97;2097363;28;20021;-90
2021/05/24 04:22:18;;;;;;;4.25;1.15;;;;;;;2.87;99.27;92818.19;2098336;28;20025;-88
2021/05/24 04:23:19;;;;;;;1.65;1.15;;;;;;;2.91;98.94;92819.72;2093597;28;20036;-88
2021/05/24 04:24:20;;;;;;;1.50;1.27;;;;;;;2.89;98.74;92816.66;2098061;28;20388;-88
2021/05/24 04:25:21;;;;;;;2.30;1.17;;;;;;;2.91;99.48;92811.03;2098030;28;20111;-88
2021/05/24 04:26:21;;;;;;;7.10;1.70;;;;;;;2.85;99.14;92809.88;2091314;28;20849;-88
2021/05/24 04:27:22;;;;;;;3.78;1.67;;;;;;;2.98;99.09;92814.44;2085326;28;20025;-88
2021/05/24 04:28:23;;;;;;;3.20;1.42;;;;;;;2.98;99.75;92808.41;2088804;28;20021;-87
2021/05/24 04:29:24;;;;;;;2.90;1.23;;;;;;;2.99;98.31;92805.41;2102106;28;20047;-88
2021/05/24 04:30:24;;;;;;;2.40;1.30;;;;;;;3.11;98.48;92816.72;2097847;28;20021;-89
2021/05/24 04:31:25;;;;;;;2.03;1.27;;;;;;;3.15;98.69;92807.66;2089743;28;20108;-88
2021/05/24 04:32:26;;;;;;;2.15;1.60;;;;;;;3.10;98.74;92810.69;2093452;28;20029;-87
2021/05/24 04:33:27;;;;;;;1.17;1.08;;;;;;;3.18;98.24;92806.91;2104339;28;20388;-87
2021/05/24 04:34:28;;;;;;;4.13;1.60;;;;;;;3.28;98.59;92810.69;2094312;28;20051;-89
2021/05/24 04:35:29;;;;;;;2.83;1.30;;;;;;;3.31;98.79;92812.59;2089508;28;20032;-89
2021/05/24 04:36:29;;;;;;;1.70;1.20;;;;;;;3.28;99.41;92805.41;2098651;28;20036;-87
2021/05/24 04:37:30;;;;;;;5.20;2.00;;;;;;;3.35;98.96;92809.97;2106184;28;20028;-88
2021/05/24 04:38:31;;;;;;;1.30;1.20;;;;;;;3.32;99.60;92814.09;2099188;28;20034;-89
2021/05/24 04:39:32;;;;;;;3.47;1.60;;;;;;;3.41;98.38;92813.72;2084919;28;20041;-89
2021/05/24 04:40:33;;;;;;;3.20;1.70;;;;;;;3.35;98.37;92807.31;2097580;28;20021;-88
2021/05/24 04:41:33;;;;;;;1.88;1.70;;;;;;;3.35;98.28;92810.72;2089466;28;20028;-89
2021/05/24 04:42:34;;;;;;;2.97;1.48;;;;;;;3.41;98.35;92809.19;2089411;28;20029;-88
2021/05/24 04:43:38;;;;;;;2.08;1.10;;;;;;;3.44;98.79;92811.09;2097446;28;20027;-88
2021/05/24 04:44:39;;;;;;;2.35;1.70;;;;;;;3.43;99.10;92808.84;2104406;28;20063;-88
2021/05/24 04:45:39;;;;;;;1.92;1.33;;;;;;;3.44;98.43;92805.06;2096303;28;20119;-88
2021/05/24 04:46:40;;;;;;;2.88;1.38;;;;;;;3.46;97.96;92806.16;2097592;28;20488;-88
2021/05/24 04:47:41;;;;;;;2.47;1.10;;;;;;;3.59;97.28;92797.88;2097644;28;20032;-88
2021/05/24 04:48:41;;;;;;;1.98;1.20;;;;;;;3.59;96.88;92809.19;2095041;28;20060;-87
2021/05/24 04:49:48;;;;;;;2.10;1.27;;;;;;;3.59;97.54;92819.75;2089798;28;20032;-88
2021/05/24 04:50:49;;;;;;;2.80;1.35;;;;;;;3.59;97.76;92821.66;2090431;28;20025;-88
2021/05/24 04:51:50;;;;;;;1.80;1.27;;;;;;;3.61;97.10;92820.16;2088609;28;20048;-88
2021/05/24 04:52:51;;;;;;;4.20;1.35;;;;;;;3.52;97.97;92811.84;2089480;28;20021;-88
2021/05/24 04:53:51;;;;;;;2.97;1.70;;;;;;;3.61;97.88;92806.94;2102732;28;20078;-89